createdAt,value
2022-08-29T00:02:15.410Z,5.57
2022-08-29T00:04:49.390Z,5.43
2022-08-29T00:07:19.131Z,5.60
2022-08-29T00:09:52.845Z,5.62
2022-08-29T00:12:25.462Z,5.20
2022-08-29T00:14:59.979Z,5.43
2022-08-29T00:17:29.277Z,5.10
2022-08-29T00:20:05.948Z,5.05
2022-08-29T00:22:36.342Z,5.47
2022-08-29T00:25:09.727Z,5.30
2022-08-29T00:27:40.636Z,5.47
2022-08-29T00:30:17.489Z,4.93
2022-08-29T00:32:47.728Z,5.57
2022-08-29T00:35:21.947Z,5.07
2022-08-29T00:37:55.122Z,5.12
2022-08-29T00:40:28.675Z,5.05
2022-08-29T00:43:00.681Z,5.30
2022-08-29T00:45:32.934Z,4.57
2022-08-29T00:48:15.113Z,5.37
2022-08-29T00:50:53.123Z,4.93
2022-08-29T00:53:29.999Z,5.60
2022-08-29T00:56:00.546Z,5.18
2022-08-29T00:58:32.659Z,4.95
2022-08-29T01:01:05.260Z,4.65
2022-08-29T01:03:36.039Z,5.15
2022-08-29T01:06:14.660Z,4.87
2022-08-29T01:11:32.973Z,5.25
2022-08-29T01:14:02.222Z,4.47
2022-08-29T01:16:31.977Z,4.75
2022-08-29T01:19:06.029Z,4.82
2022-08-29T01:21:44.364Z,4.35
2022-08-29T01:24:15.529Z,4.75
2022-08-29T01:26:47.488Z,5.05
2022-08-29T01:29:16.058Z,4.50
2022-08-29T01:31:56.679Z,4.37
2022-08-29T01:34:29.767Z,5.00
2022-08-29T01:37:01.004Z,4.62
2022-08-29T01:39:32.904Z,4.12
2022-08-29T01:42:05.270Z,4.90
2022-08-29T01:44:33.694Z,4.53
2022-08-29T01:47:05.311Z,4.85
2022-08-29T01:49:37.798Z,4.10
2022-08-29T01:52:10.078Z,4.18
2022-08-29T01:54:41.309Z,4.10
2022-08-29T01:57:13.074Z,4.32
2022-08-29T01:59:44.445Z,4.40
2022-08-29T02:02:24.248Z,4.45
2022-08-29T02:04:56.468Z,4.00
2022-08-29T02:07:25.576Z,4.78
2022-08-29T02:09:55.320Z,4.72
2022-08-29T02:12:23.337Z,4.78
2022-08-29T02:14:52.146Z,4.35
2022-08-29T02:17:21.073Z,4.50
2022-08-29T02:19:49.139Z,4.93
2022-08-29T02:22:19.449Z,4.30
2022-08-29T02:24:49.456Z,4.07
2022-08-29T02:27:18.032Z,4.37
2022-08-29T02:29:46.177Z,4.50
2022-08-29T02:32:18.083Z,4.87
2022-08-29T02:34:49.256Z,4.07
2022-08-29T02:37:21.356Z,4.37
2022-08-29T02:39:50.988Z,4.37
2022-08-29T02:42:24.093Z,5.05
2022-08-29T02:45:01.899Z,4.12
2022-08-29T02:47:38.986Z,4.75
2022-08-29T02:50:11.359Z,4.60
2022-08-29T02:52:45.540Z,4.30
2022-08-29T02:55:18.849Z,7.07
2022-08-29T02:57:50.822Z,4.32
2022-08-29T03:00:23.377Z,5.00
2022-08-29T03:02:53.708Z,5.05
2022-08-29T03:05:23.820Z,5.07
2022-08-29T03:07:52.624Z,5.47
2022-08-29T03:10:21.741Z,4.87
2022-08-29T03:12:50.566Z,5.47
2022-08-29T03:15:19.864Z,5.70
2022-08-29T03:17:48.332Z,5.60
2022-08-29T03:20:18.672Z,5.70
2022-08-29T03:22:47.887Z,5.68
2022-08-29T03:25:16.511Z,5.75
2022-08-29T03:27:44.820Z,5.87
2022-08-29T03:30:15.141Z,6.45
2022-08-29T03:32:44.386Z,6.03
2022-08-29T03:35:16.103Z,6.25
2022-08-29T03:37:44.202Z,6.82
2022-08-29T03:40:13.429Z,6.32
2022-08-29T03:42:43.125Z,6.18
2022-08-29T03:45:14.057Z,7.10
2022-08-29T03:47:43.032Z,6.78
2022-08-29T03:50:13.141Z,6.45
2022-08-29T03:52:44.378Z,6.10
2022-08-29T03:55:13.128Z,6.20
2022-08-29T03:57:41.521Z,6.72
2022-08-29T04:00:13.820Z,6.68
2022-08-29T04:02:45.257Z,7.03
2022-08-29T04:05:15.374Z,6.60
2022-08-29T04:07:57.404Z,6.60
2022-08-29T04:10:32.895Z,6.45
2022-08-29T04:13:02.322Z,6.70
2022-08-29T04:15:34.974Z,6.62
2022-08-29T04:18:07.093Z,6.93
2022-08-29T04:20:38.655Z,6.18
2022-08-29T04:23:08.095Z,6.00
2022-08-29T04:25:37.768Z,6.82
2022-08-29T04:28:08.718Z,7.63
2022-08-29T04:30:40.538Z,6.87
2022-08-29T04:33:09.388Z,6.95
2022-08-29T04:35:47.400Z,6.32
2022-08-29T04:38:16.639Z,6.72
2022-08-29T04:40:45.163Z,6.15
2022-08-29T04:43:15.164Z,6.05
2022-08-29T04:45:43.956Z,6.37
2022-08-29T04:48:11.907Z,6.75
2022-08-29T04:50:46.621Z,7.05
2022-08-29T04:53:18.332Z,6.93
2022-08-29T04:56:06.522Z,5.93
2022-08-29T04:58:44.855Z,6.30
2022-08-29T05:01:19.827Z,7.18
2022-08-29T05:03:57.059Z,6.25
2022-08-29T05:06:33.048Z,6.00
2022-08-29T05:09:13.068Z,5.80
2022-08-29T05:11:43.758Z,5.90
2022-08-29T05:14:17.946Z,5.75
2022-08-29T05:16:58.367Z,5.72
2022-08-29T05:19:34.606Z,5.72
2022-08-29T05:22:07.308Z,5.85
2022-08-29T05:24:37.908Z,5.90
2022-08-29T05:27:18.751Z,5.32
2022-08-29T05:29:49.610Z,5.32
2022-08-29T05:32:24.813Z,6.07
2022-08-29T05:34:56.331Z,5.65
2022-08-29T05:37:25.764Z,5.97
2022-08-29T05:39:54.187Z,5.68
2022-08-29T05:42:23.014Z,5.87
2022-08-29T05:44:52.105Z,5.85
2022-08-29T05:47:20.634Z,5.45
2022-08-29T05:49:49.324Z,5.40
2022-08-29T05:52:20.653Z,6.12
2022-08-29T05:57:20.552Z,6.90
2022-08-29T05:59:50.236Z,5.30
2022-08-29T06:02:19.150Z,5.90
2022-08-29T06:04:47.874Z,5.53
2022-08-29T06:07:15.810Z,5.12
2022-08-29T06:09:44.610Z,5.20
2022-08-29T06:12:15.581Z,5.18
2022-08-29T06:14:50.555Z,5.03
2022-08-29T06:17:19.198Z,5.70
2022-08-29T06:19:50.434Z,5.65
2022-08-29T06:22:22.595Z,5.18
2022-08-29T06:24:55.067Z,5.45
2022-08-29T06:27:28.963Z,5.45
2022-08-29T06:30:01.751Z,4.80
2022-08-29T06:32:30.218Z,4.18
2022-08-29T06:35:01.016Z,4.20
2022-08-29T06:37:31.253Z,4.78
2022-08-29T06:41:12.073Z,21.80
2022-08-29T06:55:42.309Z,5.10
2022-08-29T07:39:18.748Z,4.45
2022-08-29T07:42:28.108Z,3.35
2022-08-29T07:44:56.268Z,3.45
2022-08-29T07:47:27.229Z,3.40
2022-08-29T07:49:56.187Z,9.85
2022-08-29T07:52:45.460Z,3.17
2022-08-29T07:55:22.335Z,3.80
2022-08-29T07:58:04.954Z,3.25
2022-08-29T08:00:34.278Z,3.25
2022-08-29T08:03:24.728Z,3.20
2022-08-29T08:05:54.055Z,10.75
2022-08-29T08:08:23.195Z,3.37
2022-08-29T08:11:20.725Z,3.00
2022-08-29T08:16:38.736Z,3.47
2022-08-29T08:19:15.756Z,2.70
2022-08-29T08:21:49.694Z,3.40
2022-08-29T08:24:56.041Z,3.40
2022-08-29T08:27:24.512Z,8.90
2022-08-29T08:29:55.572Z,3.53
2022-08-29T08:32:24.920Z,3.08
2022-08-29T08:35:04.197Z,3.37
2022-08-29T08:37:34.128Z,3.70
2022-08-29T08:40:23.269Z,3.53
2022-08-29T08:42:52.493Z,3.80
2022-08-29T08:46:01.614Z,3.60
2022-08-29T08:49:08.268Z,3.40
2022-08-29T08:52:04.419Z,3.12
2022-08-29T08:55:01.763Z,3.40
2022-08-29T08:58:52.994Z,4.05
2022-08-29T09:01:49.884Z,4.05
2022-08-29T09:04:34.143Z,3.83
2022-08-29T09:08:14.990Z,4.12
2022-08-29T09:11:09.636Z,4.97
2022-08-29T09:17:36.419Z,3.53
2022-08-29T09:23:26.475Z,3.78
2022-08-29T09:26:07.057Z,3.75
2022-08-29T09:31:34.266Z,3.72
2022-08-29T09:34:15.272Z,4.22
2022-08-29T09:36:51.813Z,3.65
2022-08-29T09:43:14.211Z,3.45
2022-08-29T09:46:07.336Z,3.28
2022-08-29T09:49:22.867Z,3.50
2022-08-29T09:53:01.245Z,4.00
2022-08-29T11:00:43.893Z,3.25
2022-08-29T11:04:24.536Z,2.53
2022-08-29T11:10:40.821Z,2.58
2022-08-29T11:13:34.310Z,2.75
2022-08-29T12:04:58.814Z,2.47
2022-08-29T12:07:49.170Z,2.42
2022-08-29T12:10:55.664Z,2.33
2022-08-29T12:23:11.214Z,2.20
2022-08-29T12:26:43.880Z,2.10
2022-08-29T12:29:44.491Z,2.20
2022-08-29T12:32:47.090Z,2.40
2022-08-29T12:35:55.766Z,2.10
2022-08-29T12:45:12.517Z,2.12
2022-08-29T13:20:41.132Z,2.28
2022-08-29T13:26:11.977Z,1.85
2022-08-29T13:28:53.872Z,1.90
2022-08-29T13:31:34.863Z,2.40
2022-08-29T13:34:11.039Z,2.40
2022-08-29T13:36:59.271Z,2.17
2022-08-29T13:39:41.598Z,2.55
2022-08-29T13:42:15.560Z,2.10
2022-08-29T13:44:47.527Z,2.75
2022-08-29T13:47:25.095Z,1.80
2022-08-29T13:50:01.385Z,1.80
2022-08-29T13:52:31.636Z,1.90
2022-08-29T13:55:02.749Z,1.90
2022-08-29T13:57:31.743Z,1.87
2022-08-29T13:59:59.842Z,2.08
2022-08-29T14:02:28.764Z,1.87
2022-08-29T14:05:04.121Z,2.40
2022-08-29T14:07:41.400Z,2.10
2022-08-29T14:10:32.546Z,1.90
2022-08-29T14:13:12.387Z,1.95
2022-08-29T14:15:48.755Z,1.67
2022-08-29T14:18:17.206Z,2.05
2022-08-29T14:20:48.386Z,2.00
2022-08-29T14:23:23.151Z,2.22
2022-08-29T14:26:08.669Z,1.80
2022-08-29T14:28:47.972Z,1.73
2022-08-29T14:31:33.443Z,1.70
2022-08-29T14:36:48.324Z,1.90
2022-08-29T14:39:16.577Z,1.60
2022-08-29T14:42:02.682Z,1.60
2022-08-29T14:44:40.930Z,2.70
2022-08-29T14:47:16.124Z,1.90
2022-08-29T14:49:48.633Z,1.77
2022-08-29T14:52:29.887Z,2.30
2022-08-29T14:55:17.159Z,2.20
2022-08-29T14:57:53.598Z,2.00
2022-08-29T15:00:28.662Z,2.08
2022-08-29T15:03:03.471Z,2.20
2022-08-29T15:05:43.002Z,2.20
2022-08-29T15:08:19.360Z,2.33
2022-08-29T15:10:55.542Z,2.20
2022-08-29T15:13:24.225Z,2.00
2022-08-29T15:15:54.186Z,1.90
2022-08-29T15:19:53.380Z,2.28
2022-08-29T15:23:00.349Z,1.95
2022-08-29T15:26:37.403Z,2.87
2022-08-29T15:33:08.322Z,2.35
2022-08-29T15:36:29.855Z,2.20
2022-08-29T15:39:44.842Z,2.50
2022-08-29T15:42:47.533Z,2.05
2022-08-29T15:45:50.862Z,2.03
2022-08-29T15:49:06.985Z,2.22
2022-08-29T15:55:19.692Z,2.45
2022-08-29T15:58:32.318Z,2.30
2022-08-29T16:01:46.099Z,2.33
2022-08-29T16:04:57.773Z,2.30
2022-08-29T16:08:17.657Z,2.30
2022-08-29T16:11:19.817Z,2.28
2022-08-29T16:20:56.695Z,2.80
2022-08-29T16:24:03.238Z,2.70
2022-08-29T16:27:02.533Z,2.70
2022-08-29T16:30:20.406Z,2.83
2022-08-29T16:33:20.369Z,3.10
2022-08-29T16:36:44.865Z,3.20
2022-08-29T16:39:47.602Z,3.08
2022-08-29T16:42:55.385Z,3.17
2022-08-29T16:45:49.462Z,3.10
2022-08-29T16:48:44.674Z,2.60
2022-08-29T16:51:38.655Z,2.78
2022-08-29T16:54:34.568Z,2.60
2022-08-29T16:57:52.945Z,2.67
2022-08-29T17:00:53.207Z,2.70
2022-08-29T17:03:42.218Z,3.30
2022-08-29T17:06:47.873Z,2.67
2022-08-29T17:09:43.874Z,3.15
2022-08-29T17:12:37.696Z,3.00
2022-08-29T17:15:16.646Z,2.55
2022-08-29T17:18:00.041Z,2.83
2022-08-29T17:20:53.682Z,2.80
2022-08-29T17:23:35.563Z,2.70
2022-08-29T17:26:24.629Z,2.33
2022-08-29T17:29:13.099Z,2.47
2022-08-29T17:32:41.464Z,2.40
2022-08-29T17:35:25.948Z,2.65
2022-08-29T17:38:05.867Z,2.75
2022-08-29T17:40:49.094Z,2.55
2022-08-29T17:43:40.668Z,2.50
2022-08-29T17:46:15.299Z,2.40
2022-08-29T17:48:52.205Z,2.37
2022-08-29T17:54:20.843Z,2.40
2022-08-29T17:57:07.691Z,2.40
2022-08-29T17:59:41.457Z,2.42
2022-08-29T18:02:26.334Z,3.60
2022-08-29T18:05:07.376Z,2.65
2022-08-29T18:07:44.467Z,2.10
2022-08-29T18:10:34.696Z,2.30
2022-08-29T18:13:09.928Z,2.55
2022-08-29T18:15:46.372Z,2.45
2022-08-29T18:18:26.713Z,2.58
2022-08-29T18:21:07.480Z,2.60
2022-08-29T18:23:41.824Z,2.60
2022-08-29T18:26:24.332Z,2.90
2022-08-29T18:29:07.065Z,2.22
2022-08-29T18:31:45.632Z,2.58
2022-08-29T18:34:30.212Z,2.65
2022-08-29T18:37:16.589Z,2.35
2022-08-29T18:39:52.816Z,2.60
2022-08-29T18:42:40.428Z,3.05
2022-08-29T18:45:13.941Z,2.67
2022-08-29T18:47:49.003Z,2.65
2022-08-29T18:50:37.298Z,2.65
2022-08-29T18:53:21.136Z,3.22
2022-08-29T18:56:03.628Z,2.83
2022-08-29T18:58:47.044Z,2.70
2022-08-29T19:01:30.450Z,3.08
2022-08-29T19:04:11.966Z,2.42
2022-08-29T19:06:54.991Z,2.83
2022-08-29T19:09:31.788Z,2.42
2022-08-29T19:12:15.487Z,2.50
2022-08-29T19:14:57.590Z,2.53
2022-08-29T19:17:45.478Z,2.83
2022-08-29T19:20:39.828Z,2.45
2022-08-29T19:23:12.100Z,3.03
2022-08-29T19:25:46.591Z,2.75
2022-08-29T19:28:23.788Z,2.78
2022-08-29T19:30:54.695Z,2.80
2022-08-29T19:33:37.449Z,2.62
2022-08-29T19:36:21.703Z,2.55
2022-08-29T19:38:52.913Z,2.80
2022-08-29T19:41:35.080Z,2.67
2022-08-29T19:44:12.867Z,2.50
2022-08-29T19:46:53.457Z,2.97
2022-08-29T19:49:30.866Z,2.72
2022-08-29T19:52:15.016Z,2.67
2022-08-29T19:54:51.459Z,2.45
2022-08-29T19:57:40.827Z,3.40
2022-08-29T20:00:21.929Z,2.53
2022-08-29T20:03:00.015Z,2.60
2022-08-29T20:05:30.992Z,3.33
2022-08-29T20:08:10.646Z,2.30
2022-08-29T20:11:01.660Z,3.22
2022-08-29T20:13:35.770Z,3.22
2022-08-29T20:16:14.337Z,3.17
2022-08-29T20:18:52.927Z,3.28
2022-08-29T20:21:29.576Z,2.78
2022-08-29T20:24:08.091Z,3.40
2022-08-29T20:26:43.247Z,3.00
2022-08-29T20:29:30.386Z,3.05
2022-08-29T20:32:14.827Z,3.20
2022-08-29T20:34:55.643Z,4.50
2022-08-29T20:37:28.824Z,3.75
2022-08-29T20:40:00.384Z,3.37
2022-08-29T20:42:38.824Z,3.75
2022-08-29T20:45:13.259Z,3.78
2022-08-29T20:47:44.635Z,3.40
2022-08-29T20:50:49.768Z,3.90
2022-08-29T20:53:32.584Z,3.35
2022-08-29T20:56:12.707Z,3.05
2022-08-29T20:58:46.838Z,3.10
2022-08-29T21:01:28.464Z,3.10
2022-08-29T21:04:20.984Z,3.80
2022-08-29T21:07:01.777Z,3.37
2022-08-29T21:09:33.353Z,4.20
2022-08-29T21:12:10.275Z,3.30
2022-08-29T21:14:41.206Z,4.65
2022-08-29T21:17:18.361Z,3.78
2022-08-29T21:19:47.042Z,3.87
2022-08-29T21:22:21.680Z,3.50
2022-08-29T21:24:59.306Z,4.50
2022-08-29T21:27:34.613Z,3.83
2022-08-29T21:30:15.716Z,4.05
2022-08-29T21:32:51.037Z,3.47
2022-08-29T21:35:34.278Z,3.65
2022-08-29T21:38:08.104Z,3.65
2022-08-29T21:40:52.897Z,3.80
2022-08-29T21:43:35.044Z,3.85
2022-08-29T21:46:31.701Z,4.00
2022-08-29T21:49:08.476Z,3.70
2022-08-29T21:51:47.481Z,3.80
2022-08-29T21:54:31.605Z,4.25
2022-08-29T21:57:01.282Z,3.90
2022-08-29T21:59:38.603Z,4.12
2022-08-29T22:02:22.416Z,4.75
2022-08-29T22:04:57.117Z,4.00
2022-08-29T22:07:46.861Z,3.87
2022-08-29T22:10:26.687Z,4.05
2022-08-29T22:12:56.282Z,4.12
2022-08-29T22:15:57.089Z,3.87
2022-08-29T22:18:43.297Z,3.87
2022-08-29T22:21:15.410Z,3.50
2022-08-29T22:23:50.145Z,3.22
2022-08-29T22:26:32.710Z,3.78
2022-08-29T22:29:11.666Z,3.60
2022-08-29T22:31:53.518Z,3.70
2022-08-29T22:34:32.888Z,5.00
2022-08-29T22:37:13.192Z,4.30
2022-08-29T22:39:54.684Z,4.18
2022-08-29T22:42:32.756Z,4.60
2022-08-29T22:45:09.660Z,4.05
2022-08-29T22:47:50.776Z,3.62
2022-08-29T22:50:39.167Z,3.87
2022-08-29T22:55:59.273Z,3.80
2022-08-29T22:58:43.716Z,4.18
2022-08-29T23:01:19.434Z,3.83
2022-08-29T23:03:58.211Z,3.78
2022-08-29T23:06:34.602Z,3.62
2022-08-29T23:09:09.682Z,3.60
2022-08-29T23:11:47.747Z,3.50
2022-08-29T23:14:30.625Z,3.92
2022-08-29T23:17:08.480Z,4.00
2022-08-29T23:19:51.902Z,3.85
2022-08-29T23:22:24.444Z,3.80
2022-08-29T23:25:03.317Z,4.30
2022-08-29T23:27:37.910Z,3.80
2022-08-29T23:30:19.203Z,3.53
2022-08-29T23:33:01.137Z,3.55
2022-08-29T23:35:35.886Z,4.30
2022-08-29T23:38:06.806Z,4.55
2022-08-29T23:40:46.414Z,5.30
2022-08-29T23:43:26.024Z,4.70
2022-08-29T23:46:00.980Z,4.80
2022-08-29T23:48:40.600Z,4.00
2022-08-29T23:51:19.076Z,3.90
2022-08-29T23:53:55.232Z,3.60
2022-08-29T23:56:42.626Z,3.78
2022-08-29T23:59:35.592Z,3.62
